sensor_id;sensor_type;location;lat;lon;timestamp;temperature;humidity
66190;DHT22;52992;52.084;5.412;2022-11-20T00:01:21;3.10;62.80
66190;DHT22;52992;52.084;5.412;2022-11-20T00:03:49;3.10;62.70
66190;DHT22;52992;52.084;5.412;2022-11-20T00:06:18;3.10;62.70
66190;DHT22;52992;52.084;5.412;2022-11-20T00:08:46;3.10;62.70
66190;DHT22;52992;52.084;5.412;2022-11-20T00:11:21;3.10;62.70
66190;DHT22;52992;52.084;5.412;2022-11-20T00:13:52;3.00;62.50
66190;DHT22;52992;52.084;5.412;2022-11-20T00:16:21;3.00;62.50
66190;DHT22;52992;52.084;5.412;2022-11-20T00:18:49;3.00;62.40
66190;DHT22;52992;52.084;5.412;2022-11-20T00:21:22;3.00;62.40
66190;DHT22;52992;52.084;5.412;2022-11-20T00:23:50;2.90;62.50
66190;DHT22;52992;52.084;5.412;2022-11-20T00:26:18;2.90;62.50
66190;DHT22;52992;52.084;5.412;2022-11-20T00:28:50;2.90;63.00
66190;DHT22;52992;52.084;5.412;2022-11-20T00:31:18;2.90;63.10
66190;DHT22;52992;52.084;5.412;2022-11-20T00:33:45;2.90;62.80
66190;DHT22;52992;52.084;5.412;2022-11-20T00:36:14;2.90;62.70
66190;DHT22;52992;52.084;5.412;2022-11-20T00:38:42;2.90;63.40
66190;DHT22;52992;52.084;5.412;2022-11-20T00:41:11;2.80;62.50
66190;DHT22;52992;52.084;5.412;2022-11-20T00:43:38;2.80;62.50
66190;DHT22;52992;52.084;5.412;2022-11-20T00:46:07;2.80;62.50
66190;DHT22;52992;52.084;5.412;2022-11-20T00:48:34;2.80;62.50
66190;DHT22;52992;52.084;5.412;2022-11-20T00:51:01;2.80;62.50
66190;DHT22;52992;52.084;5.412;2022-11-20T00:53:28;2.80;62.60
66190;DHT22;52992;52.084;5.412;2022-11-20T00:56:00;2.80;62.70
66190;DHT22;52992;52.084;5.412;2022-11-20T00:58:36;2.80;62.60
66190;DHT22;52992;52.084;5.412;2022-11-20T01:01:06;2.80;62.70
66190;DHT22;52992;52.084;5.412;2022-11-20T01:03:34;2.80;62.50
66190;DHT22;52992;52.084;5.412;2022-11-20T01:06:06;2.70;62.50
66190;DHT22;52992;52.084;5.412;2022-11-20T01:08:34;2.70;62.50
66190;DHT22;52992;52.084;5.412;2022-11-20T01:11:03;2.70;62.50
66190;DHT22;52992;52.084;5.412;2022-11-20T01:13:31;2.70;62.50
66190;DHT22;52992;52.084;5.412;2022-11-20T01:16:37;2.70;62.50
66190;DHT22;52992;52.084;5.412;2022-11-20T01:19:08;2.70;62.50
66190;DHT22;52992;52.084;5.412;2022-11-20T01:21:41;2.70;62.50
66190;DHT22;52992;52.084;5.412;2022-11-20T01:24:11;2.70;62.50
66190;DHT22;52992;52.084;5.412;2022-11-20T01:26:39;2.70;62.40
66190;DHT22;52992;52.084;5.412;2022-11-20T01:29:08;2.60;62.30
66190;DHT22;52992;52.084;5.412;2022-11-20T01:31:37;2.60;62.30
66190;DHT22;52992;52.084;5.412;2022-11-20T01:34:06;2.60;62.40
66190;DHT22;52992;52.084;5.412;2022-11-20T01:36:35;2.60;62.30
66190;DHT22;52992;52.084;5.412;2022-11-20T01:39:05;2.60;62.30
66190;DHT22;52992;52.084;5.412;2022-11-20T01:41:33;2.60;62.20
66190;DHT22;52992;52.084;5.412;2022-11-20T01:44:57;2.60;62.30
66190;DHT22;52992;52.084;5.412;2022-11-20T01:47:35;2.60;62.40
66190;DHT22;52992;52.084;5.412;2022-11-20T01:52:45;2.50;62.10
66190;DHT22;52992;52.084;5.412;2022-11-20T01:55:20;2.50;62.10
66190;DHT22;52992;52.084;5.412;2022-11-20T01:57:48;2.50;62.10
66190;DHT22;52992;52.084;5.412;2022-11-20T02:00:18;2.50;62.10
66190;DHT22;52992;52.084;5.412;2022-11-20T02:02:59;2.60;62.20
66190;DHT22;52992;52.084;5.412;2022-11-20T02:06:12;2.50;62.30
66190;DHT22;52992;52.084;5.412;2022-11-20T02:08:41;2.50;62.30
66190;DHT22;52992;52.084;5.412;2022-11-20T02:11:09;2.50;62.20
66190;DHT22;52992;52.084;5.412;2022-11-20T02:13:36;2.40;62.20
66190;DHT22;52992;52.084;5.412;2022-11-20T02:16:33;2.50;62.30
66190;DHT22;52992;52.084;5.412;2022-11-20T02:19:04;2.40;62.20
66190;DHT22;52992;52.084;5.412;2022-11-20T02:21:49;2.50;62.30
66190;DHT22;52992;52.084;5.412;2022-11-20T02:24:19;2.40;62.20
66190;DHT22;52992;52.084;5.412;2022-11-20T02:26:53;2.50;62.30
66190;DHT22;52992;52.084;5.412;2022-11-20T02:29:28;2.50;62.30
66190;DHT22;52992;52.084;5.412;2022-11-20T02:31:58;2.40;62.20
66190;DHT22;52992;52.084;5.412;2022-11-20T02:34:27;2.40;62.10
66190;DHT22;52992;52.084;5.412;2022-11-20T02:36:53;2.40;62.80
66190;DHT22;52992;52.084;5.412;2022-11-20T02:39:22;2.40;62.10
66190;DHT22;52992;52.084;5.412;2022-11-20T02:41:52;2.50;62.20
66190;DHT22;52992;52.084;5.412;2022-11-20T02:44:20;2.50;62.00
66190;DHT22;52992;52.084;5.412;2022-11-20T02:46:47;2.40;62.00
66190;DHT22;52992;52.084;5.412;2022-11-20T02:49:14;2.50;62.10
66190;DHT22;52992;52.084;5.412;2022-11-20T02:51:40;2.50;62.00
66190;DHT22;52992;52.084;5.412;2022-11-20T02:54:07;2.40;61.80
66190;DHT22;52992;52.084;5.412;2022-11-20T02:56:34;2.40;61.80
66190;DHT22;52992;52.084;5.412;2022-11-20T02:59:01;2.40;61.80
66190;DHT22;52992;52.084;5.412;2022-11-20T03:01:27;2.40;61.80
66190;DHT22;52992;52.084;5.412;2022-11-20T03:03:54;2.40;62.50
66190;DHT22;52992;52.084;5.412;2022-11-20T03:06:22;2.40;61.80
66190;DHT22;52992;52.084;5.412;2022-11-20T03:08:49;2.40;61.70
66190;DHT22;52992;52.084;5.412;2022-11-20T03:11:16;2.40;61.90
66190;DHT22;52992;52.084;5.412;2022-11-20T03:13:43;2.50;61.90
66190;DHT22;52992;52.084;5.412;2022-11-20T03:16:12;2.30;61.70
66190;DHT22;52992;52.084;5.412;2022-11-20T03:18:40;2.30;61.70
66190;DHT22;52992;52.084;5.412;2022-11-20T03:21:09;2.30;61.60
66190;DHT22;52992;52.084;5.412;2022-11-20T03:23:37;2.30;61.60
66190;DHT22;52992;52.084;5.412;2022-11-20T03:26:17;2.30;61.60
66190;DHT22;52992;52.084;5.412;2022-11-20T03:28:50;2.30;61.50
66190;DHT22;52992;52.084;5.412;2022-11-20T03:31:20;2.30;61.50
66190;DHT22;52992;52.084;5.412;2022-11-20T03:33:47;2.30;61.60
66190;DHT22;52992;52.084;5.412;2022-11-20T03:36:15;2.30;61.60
66190;DHT22;52992;52.084;5.412;2022-11-20T03:38:43;2.30;61.50
66190;DHT22;52992;52.084;5.412;2022-11-20T03:41:12;2.30;61.50
66190;DHT22;52992;52.084;5.412;2022-11-20T03:43:39;2.30;61.50
66190;DHT22;52992;52.084;5.412;2022-11-20T03:46:07;2.30;61.60
66190;DHT22;52992;52.084;5.412;2022-11-20T03:48:34;2.30;61.50
66190;DHT22;52992;52.084;5.412;2022-11-20T03:51:15;2.30;61.50
66190;DHT22;52992;52.084;5.412;2022-11-20T03:53:44;2.30;61.50
66190;DHT22;52992;52.084;5.412;2022-11-20T03:56:12;2.20;61.20
66190;DHT22;52992;52.084;5.412;2022-11-20T03:58:41;2.20;61.20
66190;DHT22;52992;52.084;5.412;2022-11-20T04:01:11;2.20;61.30
66190;DHT22;52992;52.084;5.412;2022-11-20T04:03:39;2.20;61.30
66190;DHT22;52992;52.084;5.412;2022-11-20T04:06:09;2.20;61.30
66190;DHT22;52992;52.084;5.412;2022-11-20T04:08:37;2.20;61.30
66190;DHT22;52992;52.084;5.412;2022-11-20T04:11:20;2.20;61.20
66190;DHT22;52992;52.084;5.412;2022-11-20T04:13:50;2.20;61.20
66190;DHT22;52992;52.084;5.412;2022-11-20T04:16:17;2.20;61.20
66190;DHT22;52992;52.084;5.412;2022-11-20T04:18:45;2.30;61.20
66190;DHT22;52992;52.084;5.412;2022-11-20T04:21:12;2.20;61.10
66190;DHT22;52992;52.084;5.412;2022-11-20T04:23:39;2.20;61.20
66190;DHT22;52992;52.084;5.412;2022-11-20T04:26:08;2.20;61.20
66190;DHT22;52992;52.084;5.412;2022-11-20T04:28:36;2.20;61.20
66190;DHT22;52992;52.084;5.412;2022-11-20T04:31:04;2.20;61.20
66190;DHT22;52992;52.084;5.412;2022-11-20T04:33:32;2.20;61.90
66190;DHT22;52992;52.084;5.412;2022-11-20T04:36:07;2.20;61.20
66190;DHT22;52992;52.084;5.412;2022-11-20T04:38:34;2.20;61.10
66190;DHT22;52992;52.084;5.412;2022-11-20T04:41:03;2.20;61.20
66190;DHT22;52992;52.084;5.412;2022-11-20T04:43:30;2.20;61.30
66190;DHT22;52992;52.084;5.412;2022-11-20T04:45:58;2.20;61.20
66190;DHT22;52992;52.084;5.412;2022-11-20T04:48:29;2.20;60.90
66190;DHT22;52992;52.084;5.412;2022-11-20T04:50:56;2.10;61.00
66190;DHT22;52992;52.084;5.412;2022-11-20T04:53:23;2.10;61.10
66190;DHT22;52992;52.084;5.412;2022-11-20T04:55:50;2.10;61.10
66190;DHT22;52992;52.084;5.412;2022-11-20T04:58:16;2.10;61.00
66190;DHT22;52992;52.084;5.412;2022-11-20T05:00:43;2.10;61.00
66190;DHT22;52992;52.084;5.412;2022-11-20T05:03:10;2.10;61.00
66190;DHT22;52992;52.084;5.412;2022-11-20T05:05:37;2.10;61.00
66190;DHT22;52992;52.084;5.412;2022-11-20T05:08:04;2.10;60.90
66190;DHT22;52992;52.084;5.412;2022-11-20T05:10:30;2.00;60.70
66190;DHT22;52992;52.084;5.412;2022-11-20T05:12:57;2.00;60.70
66190;DHT22;52992;52.084;5.412;2022-11-20T05:15:24;2.00;60.70
66190;DHT22;52992;52.084;5.412;2022-11-20T05:17:52;2.00;60.60
66190;DHT22;52992;52.084;5.412;2022-11-20T05:20:19;2.00;60.40
66190;DHT22;52992;52.084;5.412;2022-11-20T05:22:46;2.00;60.20
66190;DHT22;52992;52.084;5.412;2022-11-20T05:25:13;1.90;60.00
66190;DHT22;52992;52.084;5.412;2022-11-20T05:27:40;1.90;60.10
66190;DHT22;52992;52.084;5.412;2022-11-20T05:30:08;1.80;60.00
66190;DHT22;52992;52.084;5.412;2022-11-20T05:32:34;1.80;60.20
66190;DHT22;52992;52.084;5.412;2022-11-20T05:35:01;1.80;60.30
66190;DHT22;52992;52.084;5.412;2022-11-20T05:37:28;1.80;61.10
66190;DHT22;52992;52.084;5.412;2022-11-20T05:39:55;1.80;60.30
66190;DHT22;52992;52.084;5.412;2022-11-20T05:42:22;1.80;60.40
66190;DHT22;52992;52.084;5.412;2022-11-20T05:44:58;1.80;60.40
66190;DHT22;52992;52.084;5.412;2022-11-20T05:47:26;1.80;60.60
66190;DHT22;52992;52.084;5.412;2022-11-20T05:49:54;1.70;60.50
66190;DHT22;52992;52.084;5.412;2022-11-20T05:52:21;1.70;60.50
66190;DHT22;52992;52.084;5.412;2022-11-20T05:54:47;1.70;60.50
66190;DHT22;52992;52.084;5.412;2022-11-20T05:57:14;1.70;60.50
66190;DHT22;52992;52.084;5.412;2022-11-20T05:59:41;1.70;60.30
66190;DHT22;52992;52.084;5.412;2022-11-20T06:02:08;1.70;60.20
66190;DHT22;52992;52.084;5.412;2022-11-20T06:04:35;1.70;60.10
66190;DHT22;52992;52.084;5.412;2022-11-20T06:07:02;1.70;60.00
66190;DHT22;52992;52.084;5.412;2022-11-20T06:09:29;1.60;59.90
66190;DHT22;52992;52.084;5.412;2022-11-20T06:11:56;1.60;60.00
66190;DHT22;52992;52.084;5.412;2022-11-20T06:14:23;1.60;59.90
66190;DHT22;52992;52.084;5.412;2022-11-20T06:16:49;1.60;59.90
66190;DHT22;52992;52.084;5.412;2022-11-20T06:19:16;1.60;59.90
66190;DHT22;52992;52.084;5.412;2022-11-20T06:21:43;1.60;59.80
66190;DHT22;52992;52.084;5.412;2022-11-20T06:24:10;1.50;59.90
66190;DHT22;52992;52.084;5.412;2022-11-20T06:26:37;1.50;59.90
66190;DHT22;52992;52.084;5.412;2022-11-20T06:29:04;1.50;59.90
66190;DHT22;52992;52.084;5.412;2022-11-20T06:31:31;1.50;59.80
66190;DHT22;52992;52.084;5.412;2022-11-20T06:34:04;1.60;59.80
66190;DHT22;52992;52.084;5.412;2022-11-20T06:36:33;1.50;59.80
66190;DHT22;52992;52.084;5.412;2022-11-20T06:39:00;1.60;59.90
66190;DHT22;52992;52.084;5.412;2022-11-20T06:41:27;1.50;59.90
66190;DHT22;52992;52.084;5.412;2022-11-20T06:43:54;1.50;60.00
66190;DHT22;52992;52.084;5.412;2022-11-20T06:46:21;1.60;60.10
66190;DHT22;52992;52.084;5.412;2022-11-20T06:48:49;1.60;60.10
66190;DHT22;52992;52.084;5.412;2022-11-20T06:51:16;1.60;60.10
66190;DHT22;52992;52.084;5.412;2022-11-20T06:53:43;1.60;60.10
66190;DHT22;52992;52.084;5.412;2022-11-20T06:56:10;1.60;60.00
66190;DHT22;52992;52.084;5.412;2022-11-20T06:58:37;1.60;60.00
66190;DHT22;52992;52.084;5.412;2022-11-20T07:01:06;1.60;59.90
66190;DHT22;52992;52.084;5.412;2022-11-20T07:03:34;1.60;59.90
66190;DHT22;52992;52.084;5.412;2022-11-20T07:06:01;1.60;59.90
66190;DHT22;52992;52.084;5.412;2022-11-20T07:08:29;1.60;59.80
66190;DHT22;52992;52.084;5.412;2022-11-20T07:11:04;1.60;60.00
66190;DHT22;52992;52.084;5.412;2022-11-20T07:13:31;1.60;60.10
66190;DHT22;52992;52.084;5.412;2022-11-20T07:16:04;1.60;60.10
66190;DHT22;52992;52.084;5.412;2022-11-20T07:18:31;1.60;60.00
66190;DHT22;52992;52.084;5.412;2022-11-20T07:21:09;1.60;59.90
66190;DHT22;52992;52.084;5.412;2022-11-20T07:23:37;1.60;60.80
66190;DHT22;52992;52.084;5.412;2022-11-20T07:26:09;1.60;60.00
66190;DHT22;52992;52.084;5.412;2022-11-20T07:28:36;1.60;60.00
66190;DHT22;52992;52.084;5.412;2022-11-20T07:31:04;1.70;60.10
66190;DHT22;52992;52.084;5.412;2022-11-20T07:33:31;1.70;60.00
66190;DHT22;52992;52.084;5.412;2022-11-20T07:35:59;1.80;60.10
66190;DHT22;52992;52.084;5.412;2022-11-20T07:38:26;1.90;60.20
66190;DHT22;52992;52.084;5.412;2022-11-20T07:40:54;1.90;60.10
66190;DHT22;52992;52.084;5.412;2022-11-20T07:43:22;2.00;60.10
66190;DHT22;52992;52.084;5.412;2022-11-20T07:45:49;2.00;60.10
66190;DHT22;52992;52.084;5.412;2022-11-20T07:48:16;2.10;60.00
66190;DHT22;52992;52.084;5.412;2022-11-20T07:50:43;2.10;60.20
66190;DHT22;52992;52.084;5.412;2022-11-20T07:53:10;2.20;60.40
66190;DHT22;52992;52.084;5.412;2022-11-20T07:55:36;2.20;60.30
66190;DHT22;52992;52.084;5.412;2022-11-20T07:58:03;2.30;60.50
66190;DHT22;52992;52.084;5.412;2022-11-20T08:00:30;2.40;60.30
66190;DHT22;52992;52.084;5.412;2022-11-20T08:02:57;2.40;60.30
66190;DHT22;52992;52.084;5.412;2022-11-20T08:05:24;2.50;60.40
66190;DHT22;52992;52.084;5.412;2022-11-20T08:07:50;2.60;60.20
66190;DHT22;52992;52.084;5.412;2022-11-20T08:10:17;2.70;60.40
66190;DHT22;52992;52.084;5.412;2022-11-20T08:12:51;2.80;60.00
66190;DHT22;52992;52.084;5.412;2022-11-20T08:15:38;2.90;59.90
66190;DHT22;52992;52.084;5.412;2022-11-20T08:18:10;3.00;60.20
66190;DHT22;52992;52.084;5.412;2022-11-20T08:21:02;3.00;59.90
66190;DHT22;52992;52.084;5.412;2022-11-20T08:23:29;3.10;59.90
66190;DHT22;52992;52.084;5.412;2022-11-20T08:25:55;3.10;60.00
66190;DHT22;52992;52.084;5.412;2022-11-20T08:28:22;3.20;60.20
66190;DHT22;52992;52.084;5.412;2022-11-20T08:30:49;3.30;60.20
66190;DHT22;52992;52.084;5.412;2022-11-20T08:33:17;3.40;60.00
66190;DHT22;52992;52.084;5.412;2022-11-20T08:35:44;3.50;60.10
66190;DHT22;52992;52.084;5.412;2022-11-20T08:38:11;3.60;59.90
66190;DHT22;52992;52.084;5.412;2022-11-20T08:40:38;3.60;59.80
66190;DHT22;52992;52.084;5.412;2022-11-20T08:43:05;3.70;59.90
66190;DHT22;52992;52.084;5.412;2022-11-20T08:45:32;3.70;60.00
66190;DHT22;52992;52.084;5.412;2022-11-20T08:48:02;3.80;59.80
66190;DHT22;52992;52.084;5.412;2022-11-20T08:50:30;4.00;59.80
66190;DHT22;52992;52.084;5.412;2022-11-20T08:53:05;4.00;59.70
66190;DHT22;52992;52.084;5.412;2022-11-20T08:55:32;4.10;59.60
66190;DHT22;52992;52.084;5.412;2022-11-20T08:58:05;4.10;59.50
66190;DHT22;52992;52.084;5.412;2022-11-20T09:00:33;4.10;59.40
66190;DHT22;52992;52.084;5.412;2022-11-20T09:03:00;4.10;59.60
66190;DHT22;52992;52.084;5.412;2022-11-20T09:05:28;4.10;59.40
66190;DHT22;52992;52.084;5.412;2022-11-20T09:07:58;3.90;58.30
66190;DHT22;52992;52.084;5.412;2022-11-20T09:10:26;4.00;59.80
66190;DHT22;52992;52.084;5.412;2022-11-20T09:12:53;4.10;59.70
66190;DHT22;52992;52.084;5.412;2022-11-20T09:15:22;4.20;59.50
66190;DHT22;52992;52.084;5.412;2022-11-20T09:20:19;4.40;59.30
66190;DHT22;52992;52.084;5.412;2022-11-20T09:22:46;4.50;59.80
66190;DHT22;52992;52.084;5.412;2022-11-20T09:25:13;4.70;58.90
66190;DHT22;52992;52.084;5.412;2022-11-20T09:27:39;4.80;58.80
66190;DHT22;52992;52.084;5.412;2022-11-20T09:30:09;4.90;58.70
66190;DHT22;52992;52.084;5.412;2022-11-20T09:32:38;5.00;58.50
66190;DHT22;52992;52.084;5.412;2022-11-20T09:35:06;5.10;58.30
66190;DHT22;52992;52.084;5.412;2022-11-20T09:37:32;5.10;58.50
66190;DHT22;52992;52.084;5.412;2022-11-20T09:40:00;5.20;58.30
66190;DHT22;52992;52.084;5.412;2022-11-20T09:42:50;5.20;58.30
66190;DHT22;52992;52.084;5.412;2022-11-20T09:50:55;5.30;58.80
66190;DHT22;52992;52.084;5.412;2022-11-20T09:53:32;5.40;58.30
66190;DHT22;52992;52.084;5.412;2022-11-20T09:56:03;5.40;58.40
66190;DHT22;52992;52.084;5.412;2022-11-20T09:58:40;5.40;58.40
66190;DHT22;52992;52.084;5.412;2022-11-20T10:01:18;5.50;58.60
66190;DHT22;52992;52.084;5.412;2022-11-20T10:03:49;5.60;58.30
66190;DHT22;52992;52.084;5.412;2022-11-20T10:06:24;5.70;58.70
66190;DHT22;52992;52.084;5.412;2022-11-20T10:09:03;5.70;58.40
66190;DHT22;52992;52.084;5.412;2022-11-20T10:19:39;6.20;57.60
66190;DHT22;52992;52.084;5.412;2022-11-20T10:25:11;6.20;57.90
66190;DHT22;52992;52.084;5.412;2022-11-20T10:30:21;6.40;58.40
66190;DHT22;52992;52.084;5.412;2022-11-20T10:32:59;6.50;58.10
66190;DHT22;52992;52.084;5.412;2022-11-20T10:35:28;6.60;58.20
66190;DHT22;52992;52.084;5.412;2022-11-20T10:38:00;6.70;57.50
66190;DHT22;52992;52.084;5.412;2022-11-20T10:40:38;6.70;57.60
66190;DHT22;52992;52.084;5.412;2022-11-20T10:43:10;6.60;58.10
66190;DHT22;52992;52.084;5.412;2022-11-20T10:48:24;6.70;58.60
66190;DHT22;52992;52.084;5.412;2022-11-20T10:51:02;6.80;58.60
66190;DHT22;52992;52.084;5.412;2022-11-20T10:53:47;6.80;59.20
66190;DHT22;52992;52.084;5.412;2022-11-20T10:56:41;6.80;58.90
66190;DHT22;52992;52.084;5.412;2022-11-20T10:59:23;6.90;59.00
66190;DHT22;52992;52.084;5.412;2022-11-20T11:01:54;6.80;59.30
66190;DHT22;52992;52.084;5.412;2022-11-20T11:04:40;6.90;59.30
66190;DHT22;52992;52.084;5.412;2022-11-20T11:07:33;6.90;59.70
66190;DHT22;52992;52.084;5.412;2022-11-20T11:10:21;6.90;59.70
66190;DHT22;52992;52.084;5.412;2022-11-20T11:13:01;7.00;59.60
66190;DHT22;52992;52.084;5.412;2022-11-20T11:15:39;7.10;59.50
66190;DHT22;52992;52.084;5.412;2022-11-20T11:18:10;7.20;59.10
66190;DHT22;52992;52.084;5.412;2022-11-20T11:20:37;7.20;59.10
66190;DHT22;52992;52.084;5.412;2022-11-20T11:23:05;7.20;58.90
66190;DHT22;52992;52.084;5.412;2022-11-20T11:25:34;7.10;58.90
66190;DHT22;52992;52.084;5.412;2022-11-20T11:28:04;7.00;59.20
66190;DHT22;52992;52.084;5.412;2022-11-20T11:30:42;7.00;59.70
66190;DHT22;52992;52.084;5.412;2022-11-20T11:33:11;6.90;60.00
66190;DHT22;52992;52.084;5.412;2022-11-20T11:35:47;7.00;59.80
66190;DHT22;52992;52.084;5.412;2022-11-20T11:38:22;6.90;60.10
66190;DHT22;52992;52.084;5.412;2022-11-20T11:40:50;6.80;60.50
66190;DHT22;52992;52.084;5.412;2022-11-20T11:43:22;6.80;60.80
66190;DHT22;52992;52.084;5.412;2022-11-20T11:46:32;6.80;60.90
66190;DHT22;52992;52.084;5.412;2022-11-20T11:49:15;6.70;60.90
66190;DHT22;52992;52.084;5.412;2022-11-20T11:52:13;6.70;61.40
66190;DHT22;52992;52.084;5.412;2022-11-20T11:55:02;6.60;61.50
66190;DHT22;52992;52.084;5.412;2022-11-20T11:57:41;6.60;61.70
66190;DHT22;52992;52.084;5.412;2022-11-20T12:00:16;6.60;62.20
66190;DHT22;52992;52.084;5.412;2022-11-20T12:05:24;6.60;62.20
66190;DHT22;52992;52.084;5.412;2022-11-20T12:08:02;6.70;62.50
66190;DHT22;52992;52.084;5.412;2022-11-20T12:10:44;6.70;62.50
66190;DHT22;52992;52.084;5.412;2022-11-20T12:15:50;6.60;63.80
66190;DHT22;52992;52.084;5.412;2022-11-20T12:18:20;6.70;63.00
66190;DHT22;52992;52.084;5.412;2022-11-20T12:21:10;6.70;63.10
66190;DHT22;52992;52.084;5.412;2022-11-20T12:32:22;6.70;63.40
66190;DHT22;52992;52.084;5.412;2022-11-20T12:40:02;6.50;63.50
66190;DHT22;52992;52.084;5.412;2022-11-20T12:42:41;6.50;63.70
66190;DHT22;52992;52.084;5.412;2022-11-20T12:45:48;6.50;64.00
66190;DHT22;52992;52.084;5.412;2022-11-20T12:59:33;6.50;65.40
66190;DHT22;52992;52.084;5.412;2022-11-20T13:08:04;6.60;65.60
66190;DHT22;52992;52.084;5.412;2022-11-20T13:13:24;6.60;66.10
66190;DHT22;52992;52.084;5.412;2022-11-20T13:16:10;6.70;66.10
66190;DHT22;52992;52.084;5.412;2022-11-20T13:18:41;6.60;66.00
66190;DHT22;52992;52.084;5.412;2022-11-20T13:21:38;6.60;66.30
66190;DHT22;52992;52.084;5.412;2022-11-20T13:24:24;6.50;66.60
66190;DHT22;52992;52.084;5.412;2022-11-20T13:27:19;6.50;66.90
66190;DHT22;52992;52.084;5.412;2022-11-20T13:30:11;6.40;66.90
66190;DHT22;52992;52.084;5.412;2022-11-20T13:35:56;6.50;66.70
66190;DHT22;52992;52.084;5.412;2022-11-20T13:38:23;6.50;66.70
66190;DHT22;52992;52.084;5.412;2022-11-20T13:40:56;6.50;66.70
66190;DHT22;52992;52.084;5.412;2022-11-20T13:43:41;6.50;67.00
66190;DHT22;52992;52.084;5.412;2022-11-20T13:46:09;6.50;67.00
66190;DHT22;52992;52.084;5.412;2022-11-20T13:48:41;6.50;66.60
66190;DHT22;52992;52.084;5.412;2022-11-20T13:51:21;6.50;67.00
66190;DHT22;52992;52.084;5.412;2022-11-20T13:59:53;6.60;66.80
66190;DHT22;52992;52.084;5.412;2022-11-20T14:02:26;6.50;67.00
66190;DHT22;52992;52.084;5.412;2022-11-20T14:04:59;6.50;67.20
66190;DHT22;52992;52.084;5.412;2022-11-20T14:07:39;6.40;67.30
66190;DHT22;52992;52.084;5.412;2022-11-20T14:10:28;6.40;68.20
66190;DHT22;52992;52.084;5.412;2022-11-20T14:12:58;6.40;68.20
66190;DHT22;52992;52.084;5.412;2022-11-20T14:15:36;6.50;68.40
66190;DHT22;52992;52.084;5.412;2022-11-20T14:18:18;6.50;68.80
66190;DHT22;52992;52.084;5.412;2022-11-20T14:20:46;6.40;69.20
66190;DHT22;52992;52.084;5.412;2022-11-20T14:23:23;6.40;69.70
66190;DHT22;52992;52.084;5.412;2022-11-20T14:25:55;6.30;69.80
66190;DHT22;52992;52.084;5.412;2022-11-20T14:28:30;6.50;70.40
66190;DHT22;52992;52.084;5.412;2022-11-20T14:30:57;6.30;70.70
66190;DHT22;52992;52.084;5.412;2022-11-20T14:33:26;6.30;71.30
66190;DHT22;52992;52.084;5.412;2022-11-20T14:35:55;6.30;70.70
66190;DHT22;52992;52.084;5.412;2022-11-20T14:38:27;6.40;70.50
66190;DHT22;52992;52.084;5.412;2022-11-20T14:41:14;6.40;70.40
66190;DHT22;52992;52.084;5.412;2022-11-20T14:43:46;6.40;70.70
66190;DHT22;52992;52.084;5.412;2022-11-20T14:46:14;6.40;70.80
66190;DHT22;52992;52.084;5.412;2022-11-20T14:48:48;6.40;71.00
66190;DHT22;52992;52.084;5.412;2022-11-20T14:51:35;6.30;71.40
66190;DHT22;52992;52.084;5.412;2022-11-20T14:54:14;6.20;71.60
66190;DHT22;52992;52.084;5.412;2022-11-20T14:56:41;6.20;71.70
66190;DHT22;52992;52.084;5.412;2022-11-20T14:59:09;6.10;72.00
66190;DHT22;52992;52.084;5.412;2022-11-20T15:01:36;6.10;72.10
66190;DHT22;52992;52.084;5.412;2022-11-20T15:04:10;6.20;72.30
66190;DHT22;52992;52.084;5.412;2022-11-20T15:06:48;6.10;72.10
66190;DHT22;52992;52.084;5.412;2022-11-20T15:09:17;6.20;72.50
66190;DHT22;52992;52.084;5.412;2022-11-20T15:11:59;6.20;72.30
66190;DHT22;52992;52.084;5.412;2022-11-20T15:14:27;6.20;72.20
66190;DHT22;52992;52.084;5.412;2022-11-20T15:16:55;6.20;72.30
66190;DHT22;52992;52.084;5.412;2022-11-20T15:19:24;6.20;72.60
66190;DHT22;52992;52.084;5.412;2022-11-20T15:21:51;6.20;72.30
66190;DHT22;52992;52.084;5.412;2022-11-20T15:24:18;6.20;72.20
66190;DHT22;52992;52.084;5.412;2022-11-20T15:26:45;6.20;72.50
66190;DHT22;52992;52.084;5.412;2022-11-20T15:29:14;6.20;72.30
66190;DHT22;52992;52.084;5.412;2022-11-20T15:31:45;6.20;72.40
66190;DHT22;52992;52.084;5.412;2022-11-20T15:34:14;6.20;72.20
66190;DHT22;52992;52.084;5.412;2022-11-20T15:36:42;6.20;72.40
66190;DHT22;52992;52.084;5.412;2022-11-20T15:39:09;6.20;72.50
66190;DHT22;52992;52.084;5.412;2022-11-20T15:41:37;6.20;72.60
66190;DHT22;52992;52.084;5.412;2022-11-20T15:44:05;6.30;72.60
66190;DHT22;52992;52.084;5.412;2022-11-20T15:46:33;6.30;72.70
66190;DHT22;52992;52.084;5.412;2022-11-20T15:49:05;6.40;72.60
66190;DHT22;52992;52.084;5.412;2022-11-20T15:51:33;6.30;72.60
66190;DHT22;52992;52.084;5.412;2022-11-20T15:54:14;6.40;72.40
66190;DHT22;52992;52.084;5.412;2022-11-20T15:56:41;6.30;72.40
66190;DHT22;52992;52.084;5.412;2022-11-20T15:59:08;6.30;72.60
66190;DHT22;52992;52.084;5.412;2022-11-20T16:01:35;6.50;72.60
66190;DHT22;52992;52.084;5.412;2022-11-20T16:04:02;6.40;72.60
66190;DHT22;52992;52.084;5.412;2022-11-20T16:06:29;6.40;72.80
66190;DHT22;52992;52.084;5.412;2022-11-20T16:08:56;6.40;72.80
66190;DHT22;52992;52.084;5.412;2022-11-20T16:11:22;6.40;72.70
66190;DHT22;52992;52.084;5.412;2022-11-20T16:13:49;6.40;72.70
66190;DHT22;52992;52.084;5.412;2022-11-20T16:16:36;6.50;72.80
66190;DHT22;52992;52.084;5.412;2022-11-20T16:19:04;6.50;72.90
66190;DHT22;52992;52.084;5.412;2022-11-20T16:21:31;6.50;72.60
66190;DHT22;52992;52.084;5.412;2022-11-20T16:24:00;6.50;72.60
66190;DHT22;52992;52.084;5.412;2022-11-20T16:26:27;6.50;72.50
66190;DHT22;52992;52.084;5.412;2022-11-20T16:28:54;6.60;72.80
66190;DHT22;52992;52.084;5.412;2022-11-20T16:31:22;6.60;72.90
66190;DHT22;52992;52.084;5.412;2022-11-20T16:33:50;6.70;72.90
66190;DHT22;52992;52.084;5.412;2022-11-20T16:36:18;6.70;72.80
66190;DHT22;52992;52.084;5.412;2022-11-20T16:38:45;6.70;72.50
66190;DHT22;52992;52.084;5.412;2022-11-20T16:41:12;6.70;72.60
66190;DHT22;52992;52.084;5.412;2022-11-20T16:43:51;6.70;72.90
66190;DHT22;52992;52.084;5.412;2022-11-20T16:46:20;6.70;72.80
66190;DHT22;52992;52.084;5.412;2022-11-20T16:48:56;6.80;72.70
66190;DHT22;52992;52.084;5.412;2022-11-20T16:51:23;6.80;73.00
66190;DHT22;52992;52.084;5.412;2022-11-20T16:53:51;6.90;72.70
66190;DHT22;52992;52.084;5.412;2022-11-20T16:56:21;6.90;72.60
66190;DHT22;52992;52.084;5.412;2022-11-20T16:58:49;6.90;72.80
66190;DHT22;52992;52.084;5.412;2022-11-20T17:01:18;6.90;72.70
66190;DHT22;52992;52.084;5.412;2022-11-20T17:03:53;6.90;72.60
66190;DHT22;52992;52.084;5.412;2022-11-20T17:06:30;6.90;72.60
66190;DHT22;52992;52.084;5.412;2022-11-20T17:08:57;6.90;72.60
66190;DHT22;52992;52.084;5.412;2022-11-20T17:11:25;7.00;72.60
66190;DHT22;52992;52.084;5.412;2022-11-20T17:13:54;6.90;72.30
66190;DHT22;52992;52.084;5.412;2022-11-20T17:16:22;6.90;72.90
66190;DHT22;52992;52.084;5.412;2022-11-20T17:18:50;7.00;73.00
66190;DHT22;52992;52.084;5.412;2022-11-20T17:21:17;7.00;72.80
66190;DHT22;52992;52.084;5.412;2022-11-20T17:23:45;7.10;72.50
66190;DHT22;52992;52.084;5.412;2022-11-20T17:26:21;7.10;72.60